createdAt,value
2022-10-23T00:01:33.572Z,12.52
2022-10-23T00:04:11.914Z,11.71
2022-10-23T00:06:39.129Z,11.56
2022-10-23T00:09:08.903Z,11.65
2022-10-23T00:11:36.353Z,12.47
2022-10-23T00:14:06.391Z,12.43
2022-10-23T00:16:34.228Z,12.09
2022-10-23T00:19:01.191Z,9.76
2022-10-23T00:21:28.284Z,10.25
2022-10-23T00:23:55.298Z,11.11
2022-10-23T00:26:22.332Z,12.43
2022-10-23T00:28:52.000Z,11.79
2022-10-23T00:31:20.773Z,11.51
2022-10-23T00:33:48.164Z,12.45
2022-10-23T00:36:17.488Z,12.44
2022-10-23T00:38:44.730Z,11.30
2022-10-23T00:41:17.461Z,12.46
2022-10-23T00:44:01.058Z,12.44
2022-10-23T00:46:28.395Z,12.48
2022-10-23T00:48:56.270Z,12.48
2022-10-23T00:51:23.945Z,11.87
2022-10-23T00:54:12.667Z,11.38
2022-10-23T00:56:44.763Z,12.46
2022-10-23T00:59:12.296Z,12.50
2022-10-23T01:01:39.427Z,11.76
2022-10-23T01:04:08.002Z,12.48
2022-10-23T01:07:06.776Z,11.54
2022-10-23T01:09:54.337Z,12.53
2022-10-23T01:12:40.812Z,12.23
2022-10-23T01:15:17.876Z,10.12
2022-10-23T01:17:48.038Z,12.49
2022-10-23T01:20:36.834Z,10.13
2022-10-23T01:23:22.378Z,12.52
2022-10-23T01:26:36.063Z,12.12
2022-10-23T01:29:13.211Z,12.57
2022-10-23T01:31:47.298Z,12.20
2022-10-23T01:34:27.028Z,11.40
2022-10-23T01:36:56.003Z,11.04
2022-10-23T01:39:28.923Z,9.50
2022-10-23T01:42:03.002Z,10.82
2022-10-23T01:44:44.710Z,12.65
2022-10-23T01:47:14.412Z,12.67
2022-10-23T01:49:44.132Z,10.51
2022-10-23T01:52:14.534Z,12.63
2022-10-23T01:54:44.333Z,11.00
2022-10-23T01:57:17.291Z,12.34
2022-10-23T01:59:55.588Z,12.48
2022-10-23T02:02:25.146Z,12.71
2022-10-23T02:04:59.869Z,11.74
2022-10-23T02:07:27.073Z,12.05
2022-10-23T02:09:54.197Z,9.40
2022-10-23T02:12:47.520Z,12.72
2022-10-23T02:15:29.301Z,12.33
2022-10-23T02:18:09.826Z,12.67
2022-10-23T02:20:41.489Z,11.76
2022-10-23T02:23:23.361Z,12.74
2022-10-23T02:26:19.774Z,12.71
2022-10-23T02:28:53.782Z,11.29
2022-10-23T02:31:23.543Z,11.77
2022-10-23T02:33:50.946Z,12.67
2022-10-23T02:36:19.960Z,11.45
2022-10-23T02:38:47.199Z,12.73
2022-10-23T02:41:26.354Z,10.96
2022-10-23T02:44:38.159Z,10.73
2022-10-23T02:47:16.898Z,12.81
2022-10-23T02:50:07.670Z,12.76
2022-10-23T02:52:37.359Z,12.77
2022-10-23T02:55:29.300Z,12.69
2022-10-23T02:58:24.455Z,11.72
2022-10-23T03:01:00.124Z,11.68
2022-10-23T03:03:32.138Z,11.56
2022-10-23T03:05:59.294Z,12.51
2022-10-23T03:08:26.441Z,10.59
2022-10-23T03:10:53.487Z,12.04
2022-10-23T03:13:20.421Z,10.83
2022-10-23T03:15:47.347Z,12.79
2022-10-23T03:18:14.358Z,10.48
2022-10-23T03:20:41.374Z,11.01
2022-10-23T03:23:12.150Z,6.99
2022-10-23T03:25:39.039Z,12.68
2022-10-23T03:28:05.955Z,11.70
2022-10-23T03:30:32.945Z,9.94
2022-10-23T03:32:59.912Z,11.71
2022-10-23T03:35:26.769Z,12.27
2022-10-23T03:37:53.698Z,7.55
2022-10-23T03:40:20.968Z,10.60
2022-10-23T03:42:47.886Z,11.84
2022-10-23T03:45:14.713Z,10.24
2022-10-23T03:47:42.014Z,12.32
2022-10-23T03:50:09.737Z,11.34
2022-10-23T03:52:36.847Z,11.34
2022-10-23T03:55:04.742Z,12.27
2022-10-23T03:57:31.880Z,11.40
2022-10-23T03:59:58.832Z,12.29
2022-10-23T04:02:25.901Z,10.40
2022-10-23T04:04:52.927Z,9.70
2022-10-23T04:07:19.894Z,12.15
2022-10-23T04:09:47.086Z,8.68
2022-10-23T04:12:14.060Z,11.72
2022-10-23T04:14:41.021Z,9.76
2022-10-23T04:17:08.049Z,8.79
2022-10-23T04:19:35.132Z,8.64
2022-10-23T04:22:02.109Z,11.22
2022-10-23T04:24:29.094Z,8.55
2022-10-23T04:26:56.023Z,9.24
2022-10-23T04:29:24.932Z,10.39
2022-10-23T04:31:52.121Z,10.67
2022-10-23T04:34:19.351Z,11.13
2022-10-23T04:36:46.445Z,10.25
2022-10-23T04:39:13.561Z,9.15
2022-10-23T04:41:41.083Z,10.40
2022-10-23T04:44:08.316Z,7.39
2022-10-23T04:46:35.244Z,11.49
2022-10-23T04:49:02.399Z,11.26
2022-10-23T04:51:29.402Z,9.88
2022-10-23T04:53:56.382Z,10.80
2022-10-23T04:56:23.579Z,10.28
2022-10-23T04:58:50.549Z,11.50
2022-10-23T05:01:17.470Z,11.64
2022-10-23T05:03:44.591Z,11.70
2022-10-23T05:06:11.782Z,12.04
2022-10-23T05:08:38.782Z,9.18
2022-10-23T05:11:05.948Z,11.63
2022-10-23T05:13:32.956Z,10.61
2022-10-23T05:16:00.692Z,10.40
2022-10-23T05:18:35.019Z,10.15
2022-10-23T05:21:17.626Z,11.94
2022-10-23T05:23:47.179Z,8.91
2022-10-23T05:26:14.128Z,11.27
2022-10-23T05:28:44.028Z,11.60
2022-10-23T05:31:11.481Z,9.37
2022-10-23T05:33:38.897Z,10.71
2022-10-23T05:36:06.294Z,7.15
2022-10-23T05:38:35.854Z,8.07
2022-10-23T05:41:03.465Z,10.80
2022-10-23T05:43:31.828Z,11.78
2022-10-23T05:45:59.696Z,11.93
2022-10-23T05:48:35.040Z,6.46
2022-10-23T05:51:11.287Z,11.98
2022-10-23T05:53:40.368Z,5.96
2022-10-23T05:56:10.154Z,12.23
2022-10-23T05:58:37.128Z,9.23
2022-10-23T06:01:08.960Z,10.45
2022-10-23T06:03:37.494Z,11.77
2022-10-23T06:06:05.359Z,9.35
2022-10-23T06:08:33.700Z,12.20
2022-10-23T06:11:12.219Z,12.27
2022-10-23T06:13:39.893Z,11.28
2022-10-23T06:16:15.037Z,12.29
2022-10-23T06:18:42.481Z,11.76
2022-10-23T06:21:09.994Z,10.64
2022-10-23T06:23:41.264Z,12.38
2022-10-23T06:26:10.081Z,11.55
2022-10-23T06:28:37.086Z,11.40
2022-10-23T06:31:06.191Z,11.32
2022-10-23T06:33:33.149Z,10.84
2022-10-23T06:36:00.196Z,12.42
2022-10-23T06:38:27.197Z,11.27
2022-10-23T06:40:55.363Z,11.71
2022-10-23T06:43:22.777Z,10.10
2022-10-23T06:45:50.064Z,8.10
2022-10-23T06:48:17.077Z,11.17
2022-10-23T06:50:44.058Z,11.59
2022-10-23T06:53:12.676Z,8.50
2022-10-23T06:55:42.714Z,12.29
2022-10-23T06:58:11.128Z,9.82
2022-10-23T07:00:39.304Z,10.87
2022-10-23T07:03:06.718Z,12.79
2022-10-23T07:05:33.664Z,11.53
2022-10-23T07:08:01.062Z,10.30
2022-10-23T07:10:28.187Z,10.22
2022-10-23T07:12:56.877Z,12.82
2022-10-23T07:15:23.797Z,11.16
2022-10-23T07:17:50.807Z,9.71
2022-10-23T07:20:17.822Z,12.99
2022-10-23T07:22:45.243Z,13.00
2022-10-23T07:25:12.411Z,10.52
2022-10-23T07:27:39.753Z,8.36
2022-10-23T07:30:07.351Z,12.21
2022-10-23T07:32:34.333Z,11.66
2022-10-23T07:35:02.347Z,7.21
2022-10-23T07:37:30.492Z,10.46
2022-10-23T07:39:57.438Z,12.64
2022-10-23T07:42:24.601Z,12.74
2022-10-23T07:44:51.545Z,9.89
2022-10-23T07:47:18.757Z,12.48
2022-10-23T07:49:45.675Z,11.58
2022-10-23T07:52:12.585Z,12.03
2022-10-23T07:54:39.657Z,11.27
2022-10-23T07:57:07.749Z,10.52
2022-10-23T07:59:37.922Z,11.86
2022-10-23T08:02:05.422Z,11.72
2022-10-23T08:04:32.274Z,7.87
2022-10-23T08:07:01.393Z,13.10
2022-10-23T08:09:28.333Z,12.88
2022-10-23T08:11:55.278Z,11.55
2022-10-23T08:14:22.369Z,13.07
2022-10-23T08:16:49.342Z,14.35
2022-10-23T08:19:16.318Z,14.01
2022-10-23T08:21:43.315Z,6.40
2022-10-23T08:24:14.135Z,14.49
2022-10-23T08:26:41.129Z,14.47
2022-10-23T08:29:08.072Z,9.63
2022-10-23T08:31:35.184Z,13.52
2022-10-23T08:34:02.170Z,13.51
2022-10-23T08:36:29.455Z,14.49
2022-10-23T08:38:57.954Z,12.04
2022-10-23T08:41:37.457Z,14.66
2022-10-23T08:44:19.398Z,13.50
2022-10-23T08:46:54.511Z,14.80
2022-10-23T08:49:33.323Z,14.89
2022-10-23T08:52:10.374Z,14.88
2022-10-23T08:55:06.003Z,14.89
2022-10-23T08:57:43.952Z,14.88
2022-10-23T09:00:16.425Z,14.95
2022-10-23T09:02:50.018Z,13.32
2022-10-23T09:05:19.169Z,14.83
2022-10-23T09:08:07.166Z,14.88
2022-10-23T09:11:03.790Z,14.70
2022-10-23T09:13:45.881Z,14.64
2022-10-23T09:16:25.104Z,14.66
2022-10-23T09:18:52.582Z,14.76
2022-10-23T09:21:21.203Z,14.27
2022-10-23T09:23:48.102Z,9.73
2022-10-23T09:26:17.833Z,14.65
2022-10-23T09:28:52.062Z,14.66
2022-10-23T09:31:20.236Z,14.38
2022-10-23T09:33:58.787Z,13.16
2022-10-23T09:36:29.558Z,14.40
2022-10-23T09:39:02.074Z,13.92
2022-10-23T09:41:36.351Z,14.87
2022-10-23T09:44:09.197Z,14.89
2022-10-23T09:46:45.003Z,15.15
2022-10-23T09:49:19.011Z,15.24
2022-10-23T09:52:12.093Z,14.14
2022-10-23T09:54:48.303Z,14.77
2022-10-23T09:57:24.556Z,15.28
2022-10-23T09:59:54.816Z,14.81
2022-10-23T10:02:34.932Z,14.10
2022-10-23T10:05:26.123Z,14.89
2022-10-23T10:08:13.356Z,15.07
2022-10-23T10:10:45.754Z,15.12
2022-10-23T10:13:44.860Z,15.11
2022-10-23T10:16:43.138Z,13.98
2022-10-23T10:19:50.567Z,15.13
2022-10-23T10:22:26.392Z,15.21
2022-10-23T10:24:57.801Z,13.88
2022-10-23T10:28:03.350Z,15.24
2022-10-23T10:30:48.669Z,15.14
2022-10-23T10:33:22.516Z,15.34
2022-10-23T10:35:55.419Z,15.60
2022-10-23T10:38:40.822Z,15.69
2022-10-23T10:41:30.340Z,15.70
2022-10-23T10:44:18.215Z,13.71
2022-10-23T10:47:00.358Z,14.81
2022-10-23T10:49:50.323Z,15.55
2022-10-23T10:52:33.455Z,14.73
2022-10-23T10:55:12.736Z,15.65
2022-10-23T10:57:47.277Z,15.02
2022-10-23T11:00:19.830Z,14.48
2022-10-23T11:02:50.280Z,12.87
2022-10-23T11:05:29.728Z,14.21
2022-10-23T11:08:01.806Z,14.16
2022-10-23T11:10:29.465Z,13.54
2022-10-23T11:12:57.946Z,13.94
2022-10-23T11:15:34.350Z,15.12
2022-10-23T11:18:06.638Z,14.77
2022-10-23T11:21:24.555Z,14.14
2022-10-23T11:23:54.305Z,15.34
2022-10-23T11:26:44.346Z,15.36
2022-10-23T11:29:33.549Z,15.46
2022-10-23T11:32:27.664Z,15.73
2022-10-23T11:35:19.066Z,15.81
2022-10-23T11:37:46.065Z,15.47
2022-10-23T11:40:22.749Z,15.76
2022-10-23T11:42:51.249Z,14.37
2022-10-23T11:45:34.268Z,15.53
2022-10-23T11:48:05.966Z,15.42
2022-10-23T11:50:52.554Z,16.40
2022-10-23T11:53:38.702Z,16.57
2022-10-23T11:56:25.132Z,16.32
2022-10-23T11:58:54.535Z,16.28
2022-10-23T12:01:42.557Z,16.19
2022-10-23T12:04:15.298Z,16.28
2022-10-23T12:06:44.231Z,15.44
2022-10-23T12:09:29.567Z,16.24
2022-10-23T12:12:15.449Z,16.30
2022-10-23T12:14:50.757Z,16.31
2022-10-23T12:17:23.853Z,16.25
2022-10-23T12:19:56.390Z,15.80
2022-10-23T12:25:13.663Z,16.37
2022-10-23T12:28:02.823Z,16.24
2022-10-23T12:30:42.653Z,14.97
2022-10-23T12:33:39.419Z,14.13
2022-10-23T12:36:38.170Z,15.69
2022-10-23T12:39:28.970Z,16.07
2022-10-23T12:41:56.930Z,16.04
2022-10-23T12:44:25.673Z,15.10
2022-10-23T12:46:57.716Z,15.96
2022-10-23T12:49:27.411Z,14.52
2022-10-23T12:52:01.118Z,15.93
2022-10-23T12:54:28.536Z,14.42
2022-10-23T12:56:55.449Z,15.52
2022-10-23T12:59:28.504Z,16.07
2022-10-23T13:01:55.888Z,15.78
2022-10-23T13:04:22.960Z,16.12
2022-10-23T13:06:50.903Z,14.33
2022-10-23T13:09:39.578Z,15.43
2022-10-23T13:12:08.386Z,15.80
2022-10-23T13:14:57.000Z,10.69
2022-10-23T13:17:36.690Z,14.62
2022-10-23T13:20:38.380Z,15.70
2022-10-23T13:23:08.418Z,15.79
2022-10-23T13:25:37.399Z,15.73
2022-10-23T13:28:13.314Z,14.89
2022-10-23T13:30:49.084Z,15.67
2022-10-23T13:33:24.746Z,12.75
2022-10-23T13:36:03.307Z,15.62
2022-10-23T13:38:35.377Z,14.39
2022-10-23T13:41:04.704Z,15.50
2022-10-23T13:43:33.093Z,7.75
2022-10-23T13:46:01.260Z,13.56
2022-10-23T13:48:28.941Z,13.25
2022-10-23T13:51:02.132Z,13.18
2022-10-23T13:53:30.868Z,13.98
2022-10-23T13:55:58.811Z,15.44
2022-10-23T13:58:25.938Z,15.79
2022-10-23T14:00:53.289Z,15.51
2022-10-23T14:03:24.456Z,13.02
2022-10-23T14:05:52.023Z,11.50
2022-10-23T14:08:19.241Z,14.80
2022-10-23T14:10:46.866Z,14.82
2022-10-23T14:13:13.800Z,14.88
2022-10-23T14:15:40.899Z,13.69
2022-10-23T14:18:08.509Z,13.27
2022-10-23T14:20:38.161Z,15.28
2022-10-23T14:23:05.124Z,15.00
2022-10-23T14:25:32.048Z,12.62
2022-10-23T14:27:59.016Z,15.33
2022-10-23T14:30:25.962Z,14.34
2022-10-23T14:32:53.096Z,13.69
2022-10-23T14:35:20.412Z,14.67
2022-10-23T14:37:47.448Z,12.00
2022-10-23T14:40:14.586Z,12.94
2022-10-23T14:42:41.538Z,14.44
2022-10-23T14:45:09.162Z,13.77
2022-10-23T14:47:36.131Z,10.35
2022-10-23T14:50:04.061Z,14.70
2022-10-23T14:52:31.112Z,14.28
2022-10-23T14:54:58.047Z,13.61
2022-10-23T14:57:25.009Z,12.93
2022-10-23T14:59:51.962Z,12.40
2022-10-23T15:02:19.008Z,13.52
2022-10-23T15:04:46.047Z,6.43
2022-10-23T15:07:13.037Z,13.57
2022-10-23T15:09:40.152Z,13.97
2022-10-23T15:12:08.032Z,13.09
2022-10-23T15:14:35.246Z,13.31
2022-10-23T15:17:03.142Z,11.77
2022-10-23T15:19:30.238Z,13.16
2022-10-23T15:21:57.244Z,12.88
2022-10-23T15:24:24.358Z,12.90
2022-10-23T15:26:52.261Z,12.96
2022-10-23T15:29:20.169Z,14.25
2022-10-23T15:32:08.671Z,14.33
2022-10-23T15:34:36.566Z,11.70
2022-10-23T15:37:04.566Z,13.17
2022-10-23T15:39:36.347Z,11.46
2022-10-23T15:42:05.821Z,13.01
2022-10-23T15:44:33.692Z,14.22
2022-10-23T15:47:01.315Z,14.20
2022-10-23T15:49:32.224Z,12.66
2022-10-23T15:51:59.738Z,12.94
2022-10-23T15:54:29.273Z,14.25
2022-10-23T15:56:59.070Z,12.48
2022-10-23T15:59:26.443Z,13.02
2022-10-23T16:01:53.621Z,14.20
2022-10-23T16:04:20.747Z,13.33
2022-10-23T16:06:48.560Z,13.75
2022-10-23T16:09:16.072Z,14.00
2022-10-23T16:11:44.165Z,13.89
2022-10-23T16:14:16.558Z,12.30
2022-10-23T16:16:43.703Z,13.75
2022-10-23T16:19:13.467Z,10.66
2022-10-23T16:21:41.794Z,12.32
2022-10-23T16:24:09.508Z,11.60
2022-10-23T16:26:37.861Z,13.45
2022-10-23T16:29:07.286Z,13.39
2022-10-23T16:31:35.333Z,11.71
2022-10-23T16:34:03.844Z,13.14
2022-10-23T16:36:30.930Z,12.82
2022-10-23T16:38:57.954Z,7.80
2022-10-23T16:41:24.905Z,9.79
2022-10-23T16:43:51.931Z,12.03
2022-10-23T16:46:21.955Z,12.80
2022-10-23T16:48:51.227Z,12.45
2022-10-23T16:51:24.743Z,12.72
2022-10-23T16:53:52.715Z,12.72
2022-10-23T16:56:24.871Z,12.74
2022-10-23T16:58:52.014Z,11.81
2022-10-23T17:01:24.636Z,12.82
2022-10-23T17:03:53.404Z,12.84
2022-10-23T17:06:29.284Z,12.82
2022-10-23T17:08:57.468Z,12.91
2022-10-23T17:11:37.062Z,12.88
2022-10-23T17:14:11.604Z,12.83
2022-10-23T17:16:47.849Z,10.53
2022-10-23T17:19:33.069Z,12.64
2022-10-23T17:22:10.890Z,11.87
2022-10-23T17:24:39.743Z,10.06
2022-10-23T17:27:06.911Z,12.43
2022-10-23T17:29:34.110Z,12.03
2022-10-23T17:32:01.466Z,11.60
2022-10-23T17:34:28.661Z,11.07
2022-10-23T17:36:56.520Z,8.96
2022-10-23T17:39:28.461Z,12.06
2022-10-23T17:41:56.618Z,11.99
2022-10-23T17:44:23.996Z,11.85
2022-10-23T17:46:55.178Z,11.48
2022-10-23T17:49:23.272Z,11.00
2022-10-23T17:51:56.016Z,10.75
2022-10-23T17:54:23.891Z,10.92
2022-10-23T17:56:51.077Z,11.68
2022-10-23T17:59:19.929Z,11.66
2022-10-23T18:01:48.627Z,11.57
2022-10-23T18:04:18.060Z,11.48
2022-10-23T18:06:51.111Z,11.41
2022-10-23T18:09:18.679Z,10.52
2022-10-23T18:11:48.099Z,9.64
2022-10-23T18:14:19.993Z,9.79
2022-10-23T18:16:46.983Z,9.56
2022-10-23T18:19:15.905Z,6.16
2022-10-23T18:21:42.849Z,10.62
2022-10-23T18:24:10.198Z,11.19
2022-10-23T18:26:40.430Z,10.20
2022-10-23T18:29:08.910Z,8.21
2022-10-23T18:31:37.728Z,11.06
2022-10-23T18:34:08.240Z,10.28
2022-10-23T18:36:41.144Z,10.92
2022-10-23T18:39:11.579Z,10.92
2022-10-23T18:41:41.087Z,10.97
2022-10-23T18:44:09.105Z,10.50
2022-10-23T18:46:36.517Z,10.80
2022-10-23T18:49:04.480Z,9.17
2022-10-23T18:51:33.766Z,10.70
2022-10-23T18:54:03.074Z,10.26
2022-10-23T18:56:30.052Z,10.62
2022-10-23T18:58:59.727Z,8.73
2022-10-23T19:01:30.004Z,8.47
2022-10-23T19:03:58.892Z,9.56
2022-10-23T19:06:25.989Z,7.52
2022-10-23T19:08:53.674Z,10.45
2022-10-23T19:11:23.323Z,10.39
2022-10-23T19:13:50.795Z,10.44
2022-10-23T19:16:35.569Z,9.97
2022-10-23T19:19:11.798Z,8.99
2022-10-23T19:21:41.285Z,6.85
2022-10-23T19:24:13.995Z,9.89
2022-10-23T19:26:42.690Z,7.20
2022-10-23T19:29:13.487Z,10.10
2022-10-23T19:31:43.481Z,10.04
2022-10-23T19:34:11.145Z,9.24
2022-10-23T19:36:38.101Z,6.95
2022-10-23T19:39:05.062Z,7.62
2022-10-23T19:41:32.473Z,8.78
2022-10-23T19:43:59.668Z,6.65
2022-10-23T19:46:27.419Z,0.87
2022-10-23T19:48:54.487Z,8.55
2022-10-23T19:51:21.493Z,8.16
2022-10-23T19:53:48.438Z,3.15
2022-10-23T19:56:15.470Z,7.85
2022-10-23T19:58:42.450Z,8.40
2022-10-23T20:01:14.821Z,5.39
2022-10-23T20:03:45.719Z,9.69
2022-10-23T20:06:13.854Z,9.48
2022-10-23T20:08:42.065Z,9.54
2022-10-23T20:11:10.060Z,9.46
2022-10-23T20:13:37.046Z,8.30
2022-10-23T20:16:04.036Z,8.76
2022-10-23T20:18:31.202Z,9.38
2022-10-23T20:21:02.637Z,9.32
2022-10-23T20:23:29.740Z,6.49
2022-10-23T20:26:04.507Z,7.69
2022-10-23T20:28:31.603Z,7.93
2022-10-23T20:30:58.566Z,7.99
2022-10-23T20:33:25.608Z,7.93
2022-10-23T20:35:53.003Z,9.21
2022-10-23T20:38:20.230Z,8.46
2022-10-23T20:40:47.290Z,8.23
2022-10-23T20:43:14.227Z,7.95
2022-10-23T20:45:41.169Z,8.41
2022-10-23T20:48:08.197Z,8.70
2022-10-23T20:50:35.509Z,3.83
2022-10-23T20:53:02.450Z,3.34
2022-10-23T20:55:29.357Z,3.62
2022-10-23T20:57:56.296Z,7.60
2022-10-23T21:00:23.716Z,7.89
2022-10-23T21:02:52.602Z,6.69
2022-10-23T21:05:19.876Z,8.46
2022-10-23T21:07:46.841Z,9.08
2022-10-23T21:10:13.893Z,8.00
2022-10-23T21:12:40.953Z,7.46
2022-10-23T21:15:08.967Z,8.36
2022-10-23T21:17:40.908Z,-1.49
2022-10-23T21:20:08.061Z,8.68
2022-10-23T21:22:35.013Z,7.68
2022-10-23T21:25:02.096Z,7.04
2022-10-23T21:27:29.036Z,8.02
2022-10-23T21:29:55.937Z,5.30
2022-10-23T21:32:22.882Z,6.61
2022-10-23T21:34:49.956Z,7.30
2022-10-23T21:37:16.861Z,9.02
2022-10-23T21:39:44.858Z,9.02
2022-10-23T21:42:14.272Z,7.44
2022-10-23T21:44:42.236Z,3.82
2022-10-23T21:47:09.293Z,8.58
2022-10-23T21:49:36.435Z,5.59
2022-10-23T21:52:04.149Z,8.89
2022-10-23T21:54:31.311Z,8.79
2022-10-23T21:56:58.218Z,7.61
2022-10-23T21:59:29.974Z,9.21
2022-10-23T22:01:58.718Z,9.22
2022-10-23T22:04:25.877Z,7.04
2022-10-23T22:06:53.539Z,7.40
2022-10-23T22:09:22.044Z,7.61
2022-10-23T22:11:50.716Z,6.91
2022-10-23T22:14:18.368Z,9.00
2022-10-23T22:16:45.689Z,9.45
2022-10-23T22:19:15.423Z,9.47
2022-10-23T22:21:42.948Z,9.25
2022-10-23T22:24:10.298Z,9.43
2022-10-23T22:26:40.252Z,9.11
2022-10-23T22:29:12.709Z,9.39
2022-10-23T22:31:44.133Z,6.82
2022-10-23T22:34:27.210Z,9.42
2022-10-23T22:37:05.772Z,8.30
2022-10-23T22:39:32.685Z,8.06
2022-10-23T22:41:59.602Z,8.01
2022-10-23T22:44:26.596Z,5.05
2022-10-23T22:46:54.346Z,8.21
2022-10-23T22:49:21.489Z,9.17
2022-10-23T22:51:48.417Z,8.93
2022-10-23T22:54:15.353Z,7.99
2022-10-23T22:56:42.839Z,7.44
2022-10-23T22:59:10.065Z,6.61
2022-10-23T23:01:44.359Z,9.34
2022-10-23T23:07:10.221Z,8.94
2022-10-23T23:09:42.283Z,9.26
2022-10-23T23:12:11.266Z,9.39
2022-10-23T23:14:38.930Z,7.74
2022-10-23T23:17:07.265Z,9.42
2022-10-23T23:19:34.977Z,9.36
2022-10-23T23:22:02.603Z,5.42
2022-10-23T23:24:29.581Z,8.88
2022-10-23T23:26:56.697Z,8.99
2022-10-23T23:29:23.690Z,7.69
2022-10-23T23:31:50.699Z,9.00
2022-10-23T23:34:17.693Z,7.57
2022-10-23T23:36:44.663Z,7.14
2022-10-23T23:39:12.099Z,7.42
2022-10-23T23:41:39.302Z,7.39
2022-10-23T23:44:06.444Z,8.47
2022-10-23T23:46:33.457Z,8.79
2022-10-23T23:49:00.363Z,7.56
2022-10-23T23:51:27.421Z,7.95
2022-10-23T23:53:54.784Z,8.07
2022-10-23T23:56:22.498Z,9.15
2022-10-23T23:58:49.597Z,6.56
